createdAt,value
2023-04-22T00:02:03.570Z,2.38
2023-04-22T00:04:35.019Z,2.43
2023-04-22T00:07:05.250Z,2.42
2023-04-22T00:09:34.797Z,2.42
2023-04-22T00:12:04.838Z,2.40
2023-04-22T00:14:34.434Z,2.40
2023-04-22T00:17:04.369Z,2.28
2023-04-22T00:19:35.590Z,2.18
2023-04-22T00:22:05.638Z,2.10
2023-04-22T00:24:35.368Z,2.08
2023-04-22T00:27:05.419Z,2.02
2023-04-22T00:29:35.117Z,1.97
2023-04-22T00:32:05.249Z,1.92
2023-04-22T00:34:36.484Z,1.87
2023-04-22T00:37:06.574Z,1.86
2023-04-22T00:39:39.783Z,1.93
2023-04-22T00:42:10.414Z,1.96
2023-04-22T00:44:40.052Z,1.98
2023-04-22T00:47:10.414Z,2.06
2023-04-22T00:49:41.793Z,2.08
2023-04-22T00:52:11.883Z,2.07
2023-04-22T00:54:41.676Z,2.07
2023-04-22T00:57:11.764Z,2.05
2023-04-22T00:59:41.616Z,1.93
2023-04-22T01:02:11.857Z,1.93
2023-04-22T01:04:43.135Z,1.89
2023-04-22T01:07:13.300Z,1.88
2023-04-22T01:09:43.053Z,1.87
2023-04-22T01:12:13.098Z,1.86
2023-04-22T01:14:43.730Z,1.89
2023-04-22T01:17:14.655Z,1.87
2023-04-22T01:19:46.359Z,1.89
2023-04-22T01:22:16.698Z,1.89
2023-04-22T01:24:47.710Z,1.85
2023-04-22T01:27:17.671Z,1.74
2023-04-22T01:29:47.554Z,1.62
2023-04-22T01:32:17.639Z,1.61
2023-04-22T01:34:48.119Z,1.55
2023-04-22T01:37:19.819Z,1.47
2023-04-22T01:39:51.017Z,1.43
2023-04-22T01:42:21.109Z,1.44
2023-04-22T01:44:51.738Z,1.47
2023-04-22T01:47:21.845Z,1.45
2023-04-22T01:49:52.179Z,1.46
2023-04-22T01:52:23.315Z,1.44
2023-04-22T01:54:54.448Z,1.48
2023-04-22T01:57:24.467Z,1.50
2023-04-22T01:59:54.150Z,1.48
2023-04-22T02:02:25.269Z,1.48
2023-04-22T02:04:55.003Z,1.47
2023-04-22T02:07:25.169Z,1.47
2023-04-22T02:09:56.184Z,1.45
2023-04-22T02:12:26.205Z,1.46
2023-04-22T02:14:55.742Z,1.46
2023-04-22T02:17:25.692Z,1.47
2023-04-22T02:19:55.359Z,1.47
2023-04-22T02:22:25.758Z,1.42
2023-04-22T02:24:56.816Z,1.41
2023-04-22T02:27:26.899Z,1.32
2023-04-22T02:29:56.421Z,1.27
2023-04-22T02:34:55.935Z,1.32
2023-04-22T02:37:25.810Z,1.31
2023-04-22T02:39:58.381Z,1.29
2023-04-22T02:42:28.568Z,1.27
2023-04-22T02:44:58.257Z,1.28
2023-04-22T02:47:28.253Z,1.26
2023-04-22T02:49:57.827Z,1.23
2023-04-22T02:52:28.107Z,1.23
2023-04-22T02:54:59.026Z,1.25
2023-04-22T02:57:29.033Z,1.23
2023-04-22T02:59:58.819Z,1.24
2023-04-22T03:02:28.885Z,1.23
2023-04-22T03:05:24.980Z,1.20
2023-04-22T03:07:55.269Z,1.15
2023-04-22T03:10:26.210Z,1.18
2023-04-22T03:12:56.196Z,1.14
2023-04-22T03:15:25.698Z,1.11
2023-04-22T03:17:57.506Z,1.11
2023-04-22T03:20:27.256Z,1.09
2023-04-22T03:22:57.731Z,1.07
2023-04-22T03:25:30.137Z,1.08
2023-04-22T03:28:00.778Z,1.03
2023-04-22T03:30:30.447Z,1.00
2023-04-22T03:33:01.206Z,1.00
2023-04-22T03:35:41.005Z,1.02
2023-04-22T03:38:11.906Z,0.99
2023-04-22T03:40:43.396Z,1.00
2023-04-22T03:43:22.768Z,0.99
2023-04-22T03:46:01.805Z,0.98
2023-04-22T03:48:35.931Z,1.00
2023-04-22T03:51:11.005Z,1.03
2023-04-22T03:53:43.350Z,1.00
2023-04-22T03:56:19.383Z,1.01
2023-04-22T03:58:50.328Z,1.04
2023-04-22T04:01:19.897Z,1.05
2023-04-22T04:03:53.781Z,1.05
2023-04-22T04:06:25.230Z,1.12
2023-04-22T04:08:55.222Z,1.14
2023-04-22T04:11:26.463Z,1.18
2023-04-22T04:13:56.920Z,1.18
2023-04-22T04:16:37.889Z,1.28
2023-04-22T04:19:14.064Z,1.34
2023-04-22T04:21:44.009Z,1.39
2023-04-22T04:24:13.999Z,1.43
2023-04-22T04:26:51.452Z,1.53
2023-04-22T04:29:28.416Z,1.65
2023-04-22T04:32:11.160Z,1.75
2023-04-22T04:34:42.690Z,1.82
2023-04-22T04:37:13.112Z,1.94
2023-04-22T04:40:00.345Z,2.08
2023-04-22T04:42:41.306Z,2.22
2023-04-22T04:45:17.316Z,2.35
2023-04-22T04:47:48.039Z,2.48
2023-04-22T04:50:24.653Z,2.65
2023-04-22T04:52:54.297Z,2.78
2023-04-22T04:55:32.300Z,2.95
2023-04-22T04:58:05.134Z,3.09
2023-04-22T05:00:35.280Z,3.27
2023-04-22T05:03:05.114Z,3.41
2023-04-22T05:05:36.125Z,3.58
2023-04-22T05:08:06.072Z,3.79
2023-04-22T05:10:38.548Z,4.04
2023-04-22T05:13:09.667Z,4.33
2023-04-22T05:15:43.369Z,4.60
2023-04-22T05:18:13.104Z,4.90
2023-04-22T05:20:43.503Z,5.06
2023-04-22T05:23:13.250Z,5.31
2023-04-22T05:25:43.629Z,5.63
2023-04-22T05:28:17.255Z,6.05
2023-04-22T05:30:53.100Z,6.32
2023-04-22T05:33:22.759Z,6.71
2023-04-22T05:35:53.994Z,7.19
2023-04-22T05:38:23.769Z,6.95
2023-04-22T05:40:54.421Z,7.10
2023-04-22T05:43:26.629Z,7.11
2023-04-22T05:46:06.572Z,7.23
2023-04-22T05:48:39.064Z,7.46
2023-04-22T05:51:12.664Z,7.49
2023-04-22T05:53:42.544Z,7.86
2023-04-22T05:56:13.320Z,7.96
2023-04-22T05:58:44.334Z,8.16
2023-04-22T06:01:18.972Z,7.96
2023-04-22T06:03:59.975Z,8.53
2023-04-22T06:06:31.912Z,8.77
2023-04-22T06:09:01.548Z,9.17
2023-04-22T06:11:32.409Z,9.60
2023-04-22T06:14:03.663Z,9.75
2023-04-22T06:16:36.075Z,9.81
2023-04-22T06:19:08.181Z,9.91
2023-04-22T06:21:40.837Z,10.23
2023-04-22T06:24:10.791Z,11.05
2023-04-22T06:26:40.875Z,11.52
2023-04-22T06:29:11.966Z,11.95
2023-04-22T06:31:43.317Z,12.19
2023-04-22T06:34:13.038Z,12.13
2023-04-22T06:36:43.058Z,12.24
2023-04-22T06:39:12.852Z,12.62
2023-04-22T06:42:06.344Z,12.84
2023-04-22T06:44:54.202Z,13.12
2023-04-22T06:47:31.353Z,13.16
2023-04-22T06:50:03.732Z,13.05
2023-04-22T06:52:39.414Z,12.91
2023-04-22T06:55:09.334Z,12.93
2023-04-22T06:57:39.325Z,13.35
2023-04-22T07:00:10.972Z,13.48
2023-04-22T07:02:42.771Z,13.36
2023-04-22T07:05:12.613Z,13.57
2023-04-22T07:07:43.101Z,13.41
2023-04-22T07:10:20.609Z,14.01
2023-04-22T07:13:15.560Z,14.04
2023-04-22T07:15:49.809Z,14.02
2023-04-22T07:18:24.999Z,14.15
2023-04-22T07:20:59.043Z,14.00
2023-04-22T07:23:34.317Z,14.19
2023-04-22T07:26:10.033Z,14.50
2023-04-22T07:28:43.169Z,14.20
2023-04-22T07:31:20.331Z,14.42
2023-04-22T07:33:56.443Z,14.00
2023-04-22T07:39:32.733Z,14.39
2023-04-22T07:42:05.150Z,14.87
2023-04-22T07:44:42.985Z,14.25
2023-04-22T07:47:20.006Z,14.36
2023-04-22T07:50:27.541Z,14.86
2023-04-22T07:53:43.269Z,14.25
2023-04-22T07:57:01.021Z,14.32
2023-04-22T07:59:51.971Z,14.92
2023-04-22T08:02:33.474Z,15.02
2023-04-22T08:05:08.240Z,15.13
2023-04-22T08:09:32.982Z,14.75
2023-04-22T08:15:35.407Z,15.20
2023-04-22T08:18:26.236Z,15.66
2023-04-22T08:22:11.650Z,15.56
2023-04-22T08:25:42.560Z,15.68
2023-04-22T08:28:16.380Z,15.53
2023-04-22T08:30:50.751Z,15.52
2023-04-22T08:34:07.996Z,16.02
2023-04-22T08:36:49.739Z,16.22
2023-04-22T08:39:20.390Z,16.30
2023-04-22T08:41:51.055Z,16.02
2023-04-22T08:44:21.472Z,15.73
2023-04-22T08:46:52.715Z,15.97
2023-04-22T08:49:25.054Z,16.28
2023-04-22T08:51:57.520Z,15.84
2023-04-22T08:54:27.806Z,16.11
2023-04-22T08:56:58.732Z,16.19
2023-04-22T08:59:30.016Z,16.65
2023-04-22T09:02:00.904Z,16.89
2023-04-22T09:04:31.871Z,16.76
2023-04-22T09:07:08.152Z,17.25
2023-04-22T09:09:38.664Z,17.40
2023-04-22T09:12:10.209Z,16.96
2023-04-22T09:14:41.366Z,17.76
2023-04-22T09:17:11.487Z,17.25
2023-04-22T09:19:42.158Z,16.21
2023-04-22T09:22:16.433Z,17.46
2023-04-22T09:24:50.977Z,18.69
2023-04-22T09:27:21.966Z,18.45
2023-04-22T09:29:52.814Z,18.49
2023-04-22T09:32:28.264Z,18.08
2023-04-22T09:34:59.427Z,18.50
2023-04-22T09:37:39.297Z,18.88
2023-04-22T09:40:20.415Z,18.53
2023-04-22T09:42:53.061Z,18.60
2023-04-22T09:45:33.570Z,17.88
2023-04-22T09:48:06.606Z,18.11
2023-04-22T09:50:40.105Z,18.24
2023-04-22T09:53:17.916Z,18.08
2023-04-22T09:55:54.299Z,18.03
2023-04-22T09:58:29.837Z,17.75
2023-04-22T10:01:06.222Z,18.44
2023-04-22T10:03:43.129Z,17.14
2023-04-22T10:06:17.007Z,16.33
2023-04-22T10:08:50.891Z,16.89
2023-04-22T10:11:25.582Z,16.84
2023-04-22T10:14:00.751Z,16.36
2023-04-22T10:16:35.467Z,15.65
2023-04-22T10:19:09.436Z,15.75
2023-04-22T10:21:44.789Z,15.26
2023-04-22T10:24:27.511Z,15.64
2023-04-22T10:27:03.845Z,16.03
2023-04-22T10:29:40.080Z,15.70
2023-04-22T10:32:28.108Z,15.52
2023-04-22T10:35:10.738Z,15.75
2023-04-22T10:37:47.064Z,15.48
2023-04-22T10:40:21.836Z,16.00
2023-04-22T10:42:57.667Z,15.79
2023-04-22T10:45:30.155Z,15.97
2023-04-22T10:48:05.877Z,15.80
2023-04-22T10:50:40.235Z,16.20
2023-04-22T10:53:30.473Z,16.47
2023-04-22T10:56:03.508Z,16.06
2023-04-22T10:58:35.550Z,16.15
2023-04-22T11:01:16.306Z,16.48
2023-04-22T11:03:47.216Z,16.68
2023-04-22T11:06:18.044Z,16.58
2023-04-22T11:08:49.477Z,16.14
2023-04-22T11:11:21.171Z,15.90
2023-04-22T11:13:52.177Z,15.70
2023-04-22T11:16:23.891Z,16.02
2023-04-22T11:18:54.421Z,16.02
2023-04-22T11:21:26.591Z,15.81
2023-04-22T11:24:03.124Z,15.88
2023-04-22T11:26:38.021Z,16.04
2023-04-22T11:29:08.510Z,15.58
2023-04-22T11:31:38.599Z,15.66
2023-04-22T11:34:11.272Z,15.94
2023-04-22T11:36:45.759Z,16.01
2023-04-22T11:39:19.400Z,15.86
2023-04-22T11:41:50.923Z,16.33
2023-04-22T11:44:25.989Z,16.15
2023-04-22T11:46:58.831Z,15.85
2023-04-22T11:49:33.572Z,16.02
2023-04-22T11:52:12.703Z,15.80
2023-04-22T11:54:56.794Z,16.25
2023-04-22T11:58:18.570Z,16.26
2023-04-22T12:01:02.710Z,16.74
2023-04-22T12:03:46.363Z,16.69
2023-04-22T12:06:38.572Z,16.56
2023-04-22T12:09:23.082Z,16.66
2023-04-22T12:11:58.623Z,16.46
2023-04-22T12:14:39.964Z,15.89
2023-04-22T12:17:17.901Z,16.24
2023-04-22T12:19:55.474Z,16.55
2023-04-22T12:22:31.402Z,16.89
2023-04-22T12:25:03.978Z,16.35
2023-04-22T12:27:35.855Z,16.13
2023-04-22T12:30:08.120Z,16.37
2023-04-22T12:32:40.641Z,16.49
2023-04-22T12:35:10.559Z,16.41
2023-04-22T12:37:41.089Z,16.88
2023-04-22T12:40:12.203Z,17.72
2023-04-22T12:42:42.679Z,18.13
2023-04-22T12:45:12.799Z,17.43
2023-04-22T12:47:45.627Z,17.18
2023-04-22T12:50:15.824Z,16.46
2023-04-22T12:52:46.588Z,16.44
2023-04-22T12:55:16.588Z,16.61
2023-04-22T12:57:47.393Z,17.09
2023-04-22T13:00:17.712Z,17.20
2023-04-22T13:02:54.809Z,16.49
2023-04-22T13:05:28.452Z,16.40
2023-04-22T13:08:07.105Z,17.33
2023-04-22T13:10:39.666Z,18.07
2023-04-22T13:13:18.489Z,18.97
2023-04-22T13:15:54.125Z,19.59
2023-04-22T13:18:26.556Z,18.66
2023-04-22T13:21:03.104Z,18.54
2023-04-22T13:23:39.875Z,18.07
2023-04-22T13:26:19.489Z,17.70
2023-04-22T13:28:54.424Z,18.25
2023-04-22T13:31:25.191Z,19.45
2023-04-22T13:33:57.345Z,19.70
2023-04-22T13:36:28.137Z,20.37
2023-04-22T13:38:59.353Z,18.90
2023-04-22T13:41:29.408Z,20.40
2023-04-22T13:44:00.133Z,20.54
2023-04-22T13:46:30.369Z,20.66
2023-04-22T13:49:02.356Z,20.34
2023-04-22T13:51:32.900Z,19.73
2023-04-22T13:54:03.749Z,20.09
2023-04-22T13:56:35.523Z,19.17
2023-04-22T13:59:06.729Z,20.21
2023-04-22T14:01:38.742Z,20.15
2023-04-22T14:04:13.195Z,20.19
2023-04-22T14:06:43.952Z,21.20
2023-04-22T14:09:26.795Z,21.04
2023-04-22T14:11:58.479Z,20.34
2023-04-22T14:14:36.779Z,20.07
2023-04-22T14:17:30.576Z,20.60
2023-04-22T14:20:02.670Z,19.43
2023-04-22T14:22:32.761Z,19.35
2023-04-22T14:25:03.758Z,18.89
2023-04-22T14:27:33.882Z,18.63
2023-04-22T14:30:05.520Z,16.93
2023-04-22T14:32:36.066Z,16.04
2023-04-22T14:35:08.552Z,15.67
2023-04-22T14:37:39.699Z,15.82
2023-04-22T14:40:12.754Z,16.03
2023-04-22T14:42:42.580Z,15.66
2023-04-22T14:45:15.050Z,15.45
2023-04-22T14:47:45.091Z,15.12
2023-04-22T14:50:17.077Z,14.93
2023-04-22T14:52:47.159Z,15.14
2023-04-22T14:55:23.328Z,15.24
2023-04-22T14:57:57.064Z,15.26
2023-04-22T15:00:28.204Z,15.40
2023-04-22T15:02:58.575Z,15.25
2023-04-22T15:05:30.687Z,15.08
2023-04-22T15:08:00.695Z,15.14
2023-04-22T15:10:31.376Z,15.24
2023-04-22T15:13:01.746Z,15.02
2023-04-22T15:15:32.299Z,15.14
2023-04-22T15:18:02.507Z,15.11
2023-04-22T15:20:34.356Z,15.02
2023-04-22T15:23:04.695Z,14.98
2023-04-22T15:25:36.136Z,14.96
2023-04-22T15:28:06.313Z,14.80
2023-04-22T15:30:39.756Z,14.62
2023-04-22T15:33:10.522Z,14.31
2023-04-22T15:35:46.002Z,14.28
2023-04-22T15:38:16.047Z,14.31
2023-04-22T15:40:46.432Z,14.15
2023-04-22T15:43:16.629Z,14.29
2023-04-22T15:45:47.878Z,14.22
2023-04-22T15:48:18.764Z,14.11
2023-04-22T15:50:50.847Z,14.22
2023-04-22T15:53:20.971Z,14.17
2023-04-22T15:55:52.284Z,14.04
2023-04-22T15:58:22.367Z,13.91
2023-04-22T16:00:53.006Z,13.91
2023-04-22T16:03:23.180Z,14.15
2023-04-22T16:05:55.077Z,14.17
2023-04-22T16:08:25.399Z,14.20
2023-04-22T16:10:55.969Z,13.88
2023-04-22T16:13:26.345Z,13.93
2023-04-22T16:15:56.789Z,13.99
2023-04-22T16:18:26.932Z,14.15
2023-04-22T16:21:00.687Z,14.20
2023-04-22T16:23:31.279Z,13.77
2023-04-22T16:26:03.325Z,13.79
2023-04-22T16:28:33.540Z,13.84
2023-04-22T16:31:04.522Z,13.98
2023-04-22T16:33:34.644Z,13.97
2023-04-22T16:36:09.068Z,13.80
2023-04-22T16:38:39.228Z,13.80
2023-04-22T16:41:11.854Z,13.69
2023-04-22T16:43:42.302Z,13.54
2023-04-22T16:46:12.676Z,13.33
2023-04-22T16:48:42.713Z,13.27
2023-04-22T16:51:14.571Z,13.22
2023-04-22T16:53:44.458Z,13.15
2023-04-22T16:56:14.987Z,13.11
2023-04-22T16:58:44.879Z,13.08
2023-04-22T17:01:15.408Z,12.96
2023-04-22T17:03:45.648Z,12.86
2023-04-22T17:06:17.876Z,12.72
2023-04-22T17:08:48.010Z,12.72
2023-04-22T17:11:18.810Z,12.59
2023-04-22T17:13:48.930Z,12.49
2023-04-22T17:16:19.934Z,12.19
2023-04-22T17:18:49.841Z,12.16
2023-04-22T17:21:23.407Z,12.23
2023-04-22T17:23:53.347Z,12.28
2023-04-22T17:26:23.981Z,12.20
2023-04-22T17:28:54.169Z,12.07
2023-04-22T17:31:26.184Z,11.99
2023-04-22T17:33:56.573Z,11.84
2023-04-22T17:36:29.032Z,11.77
2023-04-22T17:38:59.447Z,11.63
2023-04-22T17:41:29.831Z,11.60
2023-04-22T17:43:59.786Z,11.54
2023-04-22T17:46:30.453Z,11.39
2023-04-22T17:49:00.893Z,11.22
2023-04-22T17:51:32.845Z,10.99
2023-04-22T17:54:03.763Z,10.84
2023-04-22T17:56:34.469Z,10.85
2023-04-22T17:59:04.493Z,10.83
2023-04-22T18:01:35.828Z,10.80
2023-04-22T18:04:06.828Z,10.68
2023-04-22T18:06:39.070Z,10.49
2023-04-22T18:09:09.783Z,10.32
2023-04-22T18:11:40.265Z,10.20
2023-04-22T18:14:10.273Z,10.10
2023-04-22T18:16:40.738Z,9.89
2023-04-22T18:19:11.818Z,9.81
2023-04-22T18:21:56.873Z,9.71
2023-04-22T18:24:30.242Z,9.54
2023-04-22T18:27:01.412Z,9.48
2023-04-22T18:29:33.110Z,9.40
2023-04-22T18:32:03.957Z,9.11
2023-04-22T18:34:33.869Z,9.01
2023-04-22T18:37:08.678Z,9.04
2023-04-22T18:39:39.817Z,9.00
2023-04-22T18:42:10.571Z,8.78
2023-04-22T18:44:41.221Z,8.70
2023-04-22T18:47:11.910Z,8.62
2023-04-22T18:49:41.939Z,8.55
2023-04-22T18:52:13.776Z,8.51
2023-04-22T18:54:43.974Z,8.46
2023-04-22T18:57:14.430Z,8.29
2023-04-22T18:59:45.004Z,8.18
2023-04-22T19:02:18.964Z,8.11
2023-04-22T19:04:49.698Z,8.04
2023-04-22T19:07:21.905Z,8.05
2023-04-22T19:09:51.977Z,7.99
2023-04-22T19:12:22.436Z,7.91
2023-04-22T19:14:52.619Z,7.85
2023-04-22T19:17:23.257Z,7.89
2023-04-22T19:19:53.195Z,7.85
2023-04-22T19:22:25.518Z,7.81
2023-04-22T19:24:55.533Z,7.68
2023-04-22T19:27:25.841Z,7.60
2023-04-22T19:29:55.809Z,7.61
2023-04-22T19:32:26.229Z,7.62
2023-04-22T19:34:56.338Z,7.60
2023-04-22T19:37:28.248Z,7.55
2023-04-22T19:39:58.469Z,7.55
2023-04-22T19:42:29.566Z,7.51
2023-04-22T19:44:59.917Z,7.49
2023-04-22T19:47:30.512Z,7.42
2023-04-22T19:50:00.797Z,7.28
2023-04-22T19:52:34.478Z,7.27
2023-04-22T19:55:09.343Z,7.21
2023-04-22T19:57:42.366Z,7.24
2023-04-22T20:00:13.004Z,7.19
2023-04-22T20:02:45.177Z,7.14
2023-04-22T20:05:15.669Z,7.11
2023-04-22T20:07:48.548Z,7.05
2023-04-22T20:10:23.809Z,7.01
2023-04-22T20:12:55.097Z,6.99
2023-04-22T20:15:25.305Z,7.00
2023-04-22T20:18:02.397Z,6.93
2023-04-22T20:20:36.171Z,6.88
2023-04-22T20:23:12.972Z,6.83
2023-04-22T20:25:44.531Z,6.82
2023-04-22T20:28:15.352Z,6.83
2023-04-22T20:30:45.435Z,6.77
2023-04-22T20:33:18.437Z,6.72
2023-04-22T20:35:51.749Z,6.66
2023-04-22T20:38:24.332Z,6.68
2023-04-22T20:40:55.742Z,6.67
2023-04-22T20:43:27.192Z,6.61
2023-04-22T20:45:57.323Z,6.53
2023-04-22T20:48:28.370Z,6.45
2023-04-22T20:50:58.716Z,6.44
2023-04-22T20:53:31.066Z,6.48
2023-04-22T20:56:01.087Z,6.51
2023-04-22T20:58:32.954Z,6.46
2023-04-22T21:01:02.914Z,6.33
2023-04-22T21:03:34.039Z,6.25
2023-04-22T21:06:05.265Z,6.23
2023-04-22T21:08:39.584Z,6.20
2023-04-22T21:11:10.397Z,6.18
2023-04-22T21:13:41.508Z,6.13
2023-04-22T21:16:11.938Z,6.13
2023-04-22T21:18:45.062Z,6.10
2023-04-22T21:21:18.297Z,6.11
2023-04-22T21:23:53.108Z,6.06
2023-04-22T21:26:25.038Z,6.04
2023-04-22T21:28:59.897Z,6.08
2023-04-22T21:31:30.369Z,6.10
2023-04-22T21:34:04.872Z,6.08
2023-04-22T21:36:34.760Z,6.00
2023-04-22T21:39:07.271Z,5.94
2023-04-22T21:41:37.335Z,5.91
2023-04-22T21:44:08.164Z,5.83
2023-04-22T21:46:38.091Z,5.71
2023-04-22T21:49:09.196Z,5.72
2023-04-22T21:51:39.252Z,5.72
2023-04-22T21:54:11.354Z,5.69
2023-04-22T21:56:41.563Z,5.74
2023-04-22T21:59:12.576Z,5.72
2023-04-22T22:01:42.643Z,5.74
2023-04-22T22:04:15.686Z,5.66
2023-04-22T22:06:47.277Z,5.55
2023-04-22T22:09:19.224Z,5.49
2023-04-22T22:11:49.587Z,5.55
2023-04-22T22:14:20.216Z,5.56
2023-04-22T22:16:53.895Z,5.58
2023-04-22T22:19:28.058Z,5.52
2023-04-22T22:21:58.033Z,5.51
2023-04-22T22:24:30.091Z,5.52
2023-04-22T22:27:00.333Z,5.48
2023-04-22T22:29:30.711Z,5.44
2023-04-22T22:32:00.672Z,5.45
2023-04-22T22:34:31.082Z,5.43
2023-04-22T22:37:01.366Z,5.33
2023-04-22T22:39:33.474Z,5.26
2023-04-22T22:42:03.558Z,5.25
2023-04-22T22:44:34.008Z,5.26
2023-04-22T22:47:03.996Z,5.31
2023-04-22T22:49:34.973Z,5.26
2023-04-22T22:52:05.571Z,5.24
2023-04-22T22:54:37.925Z,5.19
2023-04-22T22:57:09.167Z,5.09
2023-04-22T22:59:39.656Z,5.13
2023-04-22T23:02:09.572Z,5.16
2023-04-22T23:04:40.429Z,5.16
2023-04-22T23:07:10.704Z,5.14
2023-04-22T23:09:42.958Z,5.15
2023-04-22T23:12:12.905Z,5.08
2023-04-22T23:14:43.301Z,5.06
2023-04-22T23:17:13.640Z,5.08
2023-04-22T23:19:44.442Z,5.09
2023-04-22T23:22:14.388Z,5.07
2023-04-22T23:24:46.847Z,5.02
2023-04-22T23:27:17.759Z,5.01
2023-04-22T23:29:48.368Z,5.01
2023-04-22T23:32:21.183Z,5.00
2023-04-22T23:34:52.705Z,4.96
2023-04-22T23:37:26.083Z,4.94
2023-04-22T23:39:58.958Z,4.93
2023-04-22T23:42:29.139Z,4.91
2023-04-22T23:44:59.583Z,4.88
2023-04-22T23:47:29.770Z,4.84
2023-04-22T23:50:00.288Z,4.80
2023-04-22T23:52:30.334Z,4.81
2023-04-22T23:55:02.178Z,4.77
2023-04-22T23:57:32.429Z,4.75
